sensor_id;sensor_type;location;lat;lon;timestamp;pressure;altitude;pressure_sealevel;temperature;humidity
60417;BME280;46263;44.726;10.396;2023-12-28T00:01:23;101658.38;;;13.33;78.41
60417;BME280;46263;44.726;10.396;2023-12-28T00:03:49;101654.03;;;13.38;78.15
60417;BME280;46263;44.726;10.396;2023-12-28T00:06:15;101662.19;;;13.47;78.06
60417;BME280;46263;44.726;10.396;2023-12-28T00:08:41;101652.72;;;13.50;77.67
60417;BME280;46263;44.726;10.396;2023-12-28T00:11:06;101656.81;;;13.54;76.80
60417;BME280;46263;44.726;10.396;2023-12-28T00:13:32;101667.03;;;13.52;77.47
60417;BME280;46263;44.726;10.396;2023-12-28T00:15:58;101660.16;;;13.31;78.26
60417;BME280;46263;44.726;10.396;2023-12-28T00:18:23;101664.25;;;13.30;77.61
60417;BME280;46263;44.726;10.396;2023-12-28T00:20:49;101668.31;;;13.29;78.62
60417;BME280;46263;44.726;10.396;2023-12-28T00:23:14;101656.34;;;13.28;78.39
60417;BME280;46263;44.726;10.396;2023-12-28T00:25:40;101664.97;;;13.25;77.79
60417;BME280;46263;44.726;10.396;2023-12-28T00:28:05;101661.44;;;13.30;78.60
60417;BME280;46263;44.726;10.396;2023-12-28T00:30:31;101662.44;;;13.21;78.13
60417;BME280;46263;44.726;10.396;2023-12-28T00:32:57;101656.56;;;13.30;78.12
60417;BME280;46263;44.726;10.396;2023-12-28T00:35:23;101663.19;;;13.33;77.44
60417;BME280;46263;44.726;10.396;2023-12-28T00:37:49;101658.09;;;13.37;77.81
60417;BME280;46263;44.726;10.396;2023-12-28T00:40:14;101661.19;;;13.39;77.86
60417;BME280;46263;44.726;10.396;2023-12-28T00:42:40;101659.38;;;13.36;77.68
60417;BME280;46263;44.726;10.396;2023-12-28T00:45:07;101662.19;;;13.36;77.39
60417;BME280;46263;44.726;10.396;2023-12-28T00:47:32;101660.13;;;13.42;77.61
60417;BME280;46263;44.726;10.396;2023-12-28T00:49:58;101655.03;;;13.46;77.13
60417;BME280;46263;44.726;10.396;2023-12-28T00:52:23;101658.88;;;13.48;77.31
60417;BME280;46263;44.726;10.396;2023-12-28T00:54:49;101654.03;;;13.49;77.11
60417;BME280;46263;44.726;10.396;2023-12-28T00:57:14;101652.25;;;13.51;77.14
60417;BME280;46263;44.726;10.396;2023-12-28T00:59:40;101655.03;;;13.46;77.28
60417;BME280;46263;44.726;10.396;2023-12-28T01:02:05;101656.84;;;13.49;76.99
60417;BME280;46263;44.726;10.396;2023-12-28T01:04:31;101646.09;;;13.52;77.24
60417;BME280;46263;44.726;10.396;2023-12-28T01:06:56;101636.41;;;13.48;76.29
60417;BME280;46263;44.726;10.396;2023-12-28T01:09:23;101647.13;;;13.50;76.72
60417;BME280;46263;44.726;10.396;2023-12-28T01:11:49;101648.91;;;13.52;76.91
60417;BME280;46263;44.726;10.396;2023-12-28T01:14:14;101654.03;;;13.27;77.06
60417;BME280;46263;44.726;10.396;2023-12-28T01:16:39;101651.47;;;13.29;77.35
60417;BME280;46263;44.726;10.396;2023-12-28T01:19:05;101648.41;;;13.16;77.49
60417;BME280;46263;44.726;10.396;2023-12-28T01:21:31;101647.88;;;13.12;77.89
60417;BME280;46263;44.726;10.396;2023-12-28T01:23:56;101656.81;;;13.10;77.81
60417;BME280;46263;44.726;10.396;2023-12-28T01:26:22;101660.13;;;13.03;77.69
60417;BME280;46263;44.726;10.396;2023-12-28T01:28:47;101660.13;;;12.92;78.52
60417;BME280;46263;44.726;10.396;2023-12-28T01:31:13;101658.56;;;12.91;78.22
60417;BME280;46263;44.726;10.396;2023-12-28T01:33:38;101657.00;;;12.85;78.53
60417;BME280;46263;44.726;10.396;2023-12-28T01:36:16;101661.06;;;12.73;78.88
60417;BME280;46263;44.726;10.396;2023-12-28T01:38:41;101661.63;;;12.88;78.09
60417;BME280;46263;44.726;10.396;2023-12-28T01:41:07;101662.84;;;12.81;78.84
60417;BME280;46263;44.726;10.396;2023-12-28T01:43:32;101659.34;;;12.97;77.72
60417;BME280;46263;44.726;10.396;2023-12-28T01:45:58;101669.28;;;12.93;77.88
60417;BME280;46263;44.726;10.396;2023-12-28T01:48:24;101660.06;;;12.76;77.75
60417;BME280;46263;44.726;10.396;2023-12-28T01:50:49;101662.31;;;12.67;77.58
60417;BME280;46263;44.726;10.396;2023-12-28T01:53:15;101664.84;;;12.59;76.64
60417;BME280;46263;44.726;10.396;2023-12-28T01:55:40;101662.03;;;12.65;76.87
60417;BME280;46263;44.726;10.396;2023-12-28T01:58:06;101671.03;;;12.79;76.23
60417;BME280;46263;44.726;10.396;2023-12-28T02:00:31;101667.91;;;12.61;76.62
60417;BME280;46263;44.726;10.396;2023-12-28T02:02:57;101677.50;;;12.38;77.99
60417;BME280;46263;44.726;10.396;2023-12-28T02:05:24;101667.84;;;12.45;77.65
60417;BME280;46263;44.726;10.396;2023-12-28T02:07:49;101665.31;;;12.47;78.14
60417;BME280;46263;44.726;10.396;2023-12-28T02:10:15;101671.13;;;12.32;77.94
60417;BME280;46263;44.726;10.396;2023-12-28T02:12:41;101668.31;;;12.32;78.38
60417;BME280;46263;44.726;10.396;2023-12-28T02:15:07;101671.06;;;12.21;78.84
60417;BME280;46263;44.726;10.396;2023-12-28T02:17:43;101669.88;;;12.39;78.34
60417;BME280;46263;44.726;10.396;2023-12-28T02:20:12;101656.88;;;12.41;77.38
60417;BME280;46263;44.726;10.396;2023-12-28T02:22:40;101659.63;;;12.30;77.21
60417;BME280;46263;44.726;10.396;2023-12-28T02:25:07;101656.09;;;12.41;77.14
60417;BME280;46263;44.726;10.396;2023-12-28T02:27:40;101648.97;;;12.45;76.35
60417;BME280;46263;44.726;10.396;2023-12-28T02:30:07;101659.25;;;12.59;75.61
60417;BME280;46263;44.726;10.396;2023-12-28T02:35:23;101648.03;;;12.59;75.42
60417;BME280;46263;44.726;10.396;2023-12-28T02:37:52;101653.91;;;12.72;75.00
60417;BME280;46263;44.726;10.396;2023-12-28T02:40:19;101650.06;;;12.59;72.47
60417;BME280;46263;44.726;10.396;2023-12-28T02:42:45;101644.38;;;12.37;72.88
60417;BME280;46263;44.726;10.396;2023-12-28T02:45:10;101649.44;;;12.27;72.52
60417;BME280;46263;44.726;10.396;2023-12-28T02:47:36;101646.06;;;12.18;73.16
60417;BME280;46263;44.726;10.396;2023-12-28T02:50:02;101638.38;;;12.07;72.85
60417;BME280;46263;44.726;10.396;2023-12-28T02:52:27;101647.09;;;12.15;72.67
60417;BME280;46263;44.726;10.396;2023-12-28T02:54:53;101636.13;;;12.17;71.78
60417;BME280;46263;44.726;10.396;2023-12-28T02:57:18;101630.72;;;12.02;73.01
60417;BME280;46263;44.726;10.396;2023-12-28T02:59:45;101634.81;;;12.01;73.05
60417;BME280;46263;44.726;10.396;2023-12-28T03:02:10;101628.47;;;12.12;72.52
60417;BME280;46263;44.726;10.396;2023-12-28T03:04:36;101631.28;;;12.12;72.39
60417;BME280;46263;44.726;10.396;2023-12-28T03:07:01;101631.53;;;12.14;72.25
60417;BME280;46263;44.726;10.396;2023-12-28T03:09:26;101625.91;;;12.08;71.44
60417;BME280;46263;44.726;10.396;2023-12-28T03:11:52;101619.53;;;12.02;72.12
60417;BME280;46263;44.726;10.396;2023-12-28T03:14:17;101619.50;;;11.97;71.83
60417;BME280;46263;44.726;10.396;2023-12-28T03:16:43;101611.91;;;12.08;72.22
60417;BME280;46263;44.726;10.396;2023-12-28T03:19:08;101606.81;;;12.07;71.97
60417;BME280;46263;44.726;10.396;2023-12-28T03:21:40;101605.81;;;12.15;72.06
60417;BME280;46263;44.726;10.396;2023-12-28T03:24:06;101601.78;;;12.22;71.67
60417;BME280;46263;44.726;10.396;2023-12-28T03:26:31;101608.88;;;12.17;71.97
60417;BME280;46263;44.726;10.396;2023-12-28T03:28:57;101604.97;;;11.98;72.59
60417;BME280;46263;44.726;10.396;2023-12-28T03:31:22;101604.88;;;11.77;73.62
60417;BME280;46263;44.726;10.396;2023-12-28T03:33:48;101597.94;;;11.67;74.17
60417;BME280;46263;44.726;10.396;2023-12-28T03:36:20;101590.53;;;11.64;74.15
60417;BME280;46263;44.726;10.396;2023-12-28T03:38:46;101605.13;;;11.79;73.73
60417;BME280;46263;44.726;10.396;2023-12-28T03:41:21;101592.97;;;11.93;73.40
60417;BME280;46263;44.726;10.396;2023-12-28T03:43:47;101587.47;;;12.14;72.99
60417;BME280;46263;44.726;10.396;2023-12-28T03:46:13;101581.91;;;12.25;72.22
60417;BME280;46263;44.726;10.396;2023-12-28T03:48:39;101575.56;;;12.36;71.78
60417;BME280;46263;44.726;10.396;2023-12-28T03:51:05;101576.31;;;12.36;70.32
60417;BME280;46263;44.726;10.396;2023-12-28T03:53:31;101579.38;;;12.27;70.49
60417;BME280;46263;44.726;10.396;2023-12-28T03:56:00;101579.59;;;12.24;69.72
60417;BME280;46263;44.726;10.396;2023-12-28T03:58:25;101579.59;;;12.24;69.54
60417;BME280;46263;44.726;10.396;2023-12-28T04:00:52;101578.78;;;12.12;69.17
60417;BME280;46263;44.726;10.396;2023-12-28T04:03:17;101583.34;;;12.04;68.98
60417;BME280;46263;44.726;10.396;2023-12-28T04:05:43;101589.84;;;11.74;70.63
60417;BME280;46263;44.726;10.396;2023-12-28T04:08:09;101583.13;;;11.61;71.09
60417;BME280;46263;44.726;10.396;2023-12-28T04:10:34;101583.41;;;11.32;71.81
60417;BME280;46263;44.726;10.396;2023-12-28T04:13:02;101584.56;;;11.14;72.67
60417;BME280;46263;44.726;10.396;2023-12-28T04:15:27;101585.53;;;11.06;73.12
60417;BME280;46263;44.726;10.396;2023-12-28T04:17:53;101586.78;;;11.05;72.69
60417;BME280;46263;44.726;10.396;2023-12-28T04:20:18;101585.88;;;11.19;72.32
60417;BME280;46263;44.726;10.396;2023-12-28T04:22:44;101592.69;;;11.12;72.22
60417;BME280;46263;44.726;10.396;2023-12-28T04:25:10;101582.44;;;11.04;71.51
60417;BME280;46263;44.726;10.396;2023-12-28T04:27:36;101583.88;;;10.94;72.19
60417;BME280;46263;44.726;10.396;2023-12-28T04:30:01;101592.72;;;10.87;72.85
60417;BME280;46263;44.726;10.396;2023-12-28T04:32:27;101588.84;;;10.79;72.78
60417;BME280;46263;44.726;10.396;2023-12-28T04:34:53;101593.94;;;10.81;72.54
60417;BME280;46263;44.726;10.396;2023-12-28T04:37:19;101601.28;;;10.78;72.34
60417;BME280;46263;44.726;10.396;2023-12-28T04:39:45;101597.41;;;10.70;72.40
60417;BME280;46263;44.726;10.396;2023-12-28T04:42:11;101606.75;;;10.67;72.77
60417;BME280;46263;44.726;10.396;2023-12-28T04:44:39;101602.69;;;10.68;72.54
60417;BME280;46263;44.726;10.396;2023-12-28T04:47:05;101605.50;;;10.68;72.78
60417;BME280;46263;44.726;10.396;2023-12-28T04:49:30;101598.66;;;10.69;72.95
60417;BME280;46263;44.726;10.396;2023-12-28T04:51:56;101606.81;;;10.73;72.77
60417;BME280;46263;44.726;10.396;2023-12-28T04:54:22;101601.66;;;10.66;72.85
60417;BME280;46263;44.726;10.396;2023-12-28T04:56:47;101609.63;;;10.73;72.68
60417;BME280;46263;44.726;10.396;2023-12-28T04:59:13;101610.88;;;10.72;72.02
60417;BME280;46263;44.726;10.396;2023-12-28T05:01:42;101610.72;;;10.81;72.10
60417;BME280;46263;44.726;10.396;2023-12-28T05:04:08;101611.38;;;10.70;71.95
60417;BME280;46263;44.726;10.396;2023-12-28T05:06:34;101601.13;;;10.62;71.71
60417;BME280;46263;44.726;10.396;2023-12-28T05:08:59;101610.88;;;10.46;72.35
60417;BME280;46263;44.726;10.396;2023-12-28T05:11:25;101614.09;;;10.39;72.79
60417;BME280;46263;44.726;10.396;2023-12-28T05:13:50;101614.03;;;10.59;72.23
60417;BME280;46263;44.726;10.396;2023-12-28T05:16:16;101612.34;;;10.67;71.77
60417;BME280;46263;44.726;10.396;2023-12-28T05:18:41;101611.41;;;10.50;72.03
60417;BME280;46263;44.726;10.396;2023-12-28T05:21:07;101608.47;;;10.59;71.94
60417;BME280;46263;44.726;10.396;2023-12-28T05:23:32;101602.63;;;10.57;71.74
60417;BME280;46263;44.726;10.396;2023-12-28T05:25:57;101594.81;;;10.67;72.03
60417;BME280;46263;44.726;10.396;2023-12-28T05:28:23;101598.59;;;10.64;72.04
60417;BME280;46263;44.726;10.396;2023-12-28T05:30:48;101604.19;;;10.64;71.71
60417;BME280;46263;44.726;10.396;2023-12-28T05:33:14;101596.13;;;10.71;71.99
60417;BME280;46263;44.726;10.396;2023-12-28T05:35:39;101605.63;;;10.79;71.02
60417;BME280;46263;44.726;10.396;2023-12-28T05:38:05;101600.72;;;10.74;70.61
60417;BME280;46263;44.726;10.396;2023-12-28T05:40:30;101594.22;;;10.83;70.19
60417;BME280;46263;44.726;10.396;2023-12-28T05:42:56;101600.47;;;10.72;69.76
60417;BME280;46263;44.726;10.396;2023-12-28T05:45:21;101597.03;;;10.57;70.17
60417;BME280;46263;44.726;10.396;2023-12-28T05:47:46;101589.03;;;10.50;70.65
60417;BME280;46263;44.726;10.396;2023-12-28T05:50:12;101593.41;;;10.77;69.88
60417;BME280;46263;44.726;10.396;2023-12-28T05:52:37;101596.13;;;10.71;69.63
60417;BME280;46263;44.726;10.396;2023-12-28T05:55:04;101595.53;;;10.62;69.55
60417;BME280;46263;44.726;10.396;2023-12-28T05:57:30;101596.69;;;10.50;70.04
60417;BME280;46263;44.726;10.396;2023-12-28T05:59:59;101595.97;;;10.55;70.07
60417;BME280;46263;44.726;10.396;2023-12-28T06:02:24;101598.53;;;10.58;69.69
60417;BME280;46263;44.726;10.396;2023-12-28T06:04:50;101598.16;;;10.45;69.76
60417;BME280;46263;44.726;10.396;2023-12-28T06:07:15;101609.19;;;10.34;70.63
60417;BME280;46263;44.726;10.396;2023-12-28T06:09:41;101608.72;;;10.36;70.92
60417;BME280;46263;44.726;10.396;2023-12-28T06:12:06;101608.94;;;10.32;71.37
60417;BME280;46263;44.726;10.396;2023-12-28T06:14:32;101604.91;;;10.33;70.84
60417;BME280;46263;44.726;10.396;2023-12-28T06:16:58;101602.03;;;10.28;70.91
60417;BME280;46263;44.726;10.396;2023-12-28T06:19:23;101606.06;;;10.27;71.41
60417;BME280;46263;44.726;10.396;2023-12-28T06:21:49;101612.00;;;10.34;71.05
60417;BME280;46263;44.726;10.396;2023-12-28T06:24:15;101609.47;;;10.36;70.86
60417;BME280;46263;44.726;10.396;2023-12-28T06:26:44;101613.09;;;10.42;70.71
60417;BME280;46263;44.726;10.396;2023-12-28T06:29:09;101628.91;;;10.45;70.86
60417;BME280;46263;44.726;10.396;2023-12-28T06:31:36;101633.66;;;10.39;70.97
60417;BME280;46263;44.726;10.396;2023-12-28T06:34:05;101635.75;;;10.44;70.64
60417;BME280;46263;44.726;10.396;2023-12-28T06:36:31;101640.75;;;10.60;70.49
60417;BME280;46263;44.726;10.396;2023-12-28T06:38:58;101641.19;;;10.53;70.14
60417;BME280;46263;44.726;10.396;2023-12-28T06:41:24;101641.03;;;10.42;70.30
60417;BME280;46263;44.726;10.396;2023-12-28T06:43:51;101640.78;;;10.21;70.73
60417;BME280;46263;44.726;10.396;2023-12-28T06:46:17;101637.91;;;10.15;71.01
60417;BME280;46263;44.726;10.396;2023-12-28T06:48:43;101645.81;;;10.17;71.21
60417;BME280;46263;44.726;10.396;2023-12-28T06:51:16;101643.28;;;10.19;71.32
60417;BME280;46263;44.726;10.396;2023-12-28T06:53:43;101643.94;;;10.08;71.04
60417;BME280;46263;44.726;10.396;2023-12-28T06:56:09;101650.75;;;10.07;71.73
60417;BME280;46263;44.726;10.396;2023-12-28T06:58:34;101646.28;;;10.15;71.54
60417;BME280;46263;44.726;10.396;2023-12-28T07:01:03;101646.53;;;10.32;71.25
60417;BME280;46263;44.726;10.396;2023-12-28T07:03:28;101651.41;;;10.17;71.62
60417;BME280;46263;44.726;10.396;2023-12-28T07:06:00;101659.00;;;10.16;71.62
60417;BME280;46263;44.726;10.396;2023-12-28T07:08:25;101656.34;;;10.07;71.86
60417;BME280;46263;44.726;10.396;2023-12-28T07:10:51;101658.47;;;10.12;72.08
60417;BME280;46263;44.726;10.396;2023-12-28T07:13:16;101657.25;;;10.19;72.04
60417;BME280;46263;44.726;10.396;2023-12-28T07:15:42;101657.69;;;10.12;72.17
60417;BME280;46263;44.726;10.396;2023-12-28T07:18:07;101666.00;;;10.26;71.36
60417;BME280;46263;44.726;10.396;2023-12-28T07:20:33;101664.31;;;10.34;71.15
60417;BME280;46263;44.726;10.396;2023-12-28T07:22:58;101657.97;;;10.33;70.99
60417;BME280;46263;44.726;10.396;2023-12-28T07:25:23;101666.50;;;10.25;71.00
60417;BME280;46263;44.726;10.396;2023-12-28T07:27:49;101660.19;;;10.30;70.78
60417;BME280;46263;44.726;10.396;2023-12-28T07:30:15;101661.53;;;10.34;71.04
60417;BME280;46263;44.726;10.396;2023-12-28T07:32:42;101671.56;;;10.46;70.57
60417;BME280;46263;44.726;10.396;2023-12-28T07:35:08;101666.41;;;10.59;70.33
60417;BME280;46263;44.726;10.396;2023-12-28T07:37:34;101673.19;;;10.52;70.55
60417;BME280;46263;44.726;10.396;2023-12-28T07:40:00;101665.38;;;10.36;71.40
60417;BME280;46263;44.726;10.396;2023-12-28T07:42:25;101671.75;;;10.37;71.51
60417;BME280;46263;44.726;10.396;2023-12-28T07:44:51;101669.41;;;10.35;71.36
60417;BME280;46263;44.726;10.396;2023-12-28T07:47:16;101664.44;;;10.65;70.90
60417;BME280;46263;44.726;10.396;2023-12-28T07:49:42;101661.97;;;10.72;70.41
60417;BME280;46263;44.726;10.396;2023-12-28T07:52:07;101671.69;;;10.77;70.15
60417;BME280;46263;44.726;10.396;2023-12-28T07:54:33;101670.75;;;10.85;69.88
60417;BME280;46263;44.726;10.396;2023-12-28T07:56:59;101672.13;;;10.95;70.35
60417;BME280;46263;44.726;10.396;2023-12-28T07:59:24;101681.22;;;11.15;69.81
60417;BME280;46263;44.726;10.396;2023-12-28T08:01:50;101681.41;;;11.07;69.75
60417;BME280;46263;44.726;10.396;2023-12-28T08:04:15;101682.72;;;11.11;69.94
60417;BME280;46263;44.726;10.396;2023-12-28T08:06:40;101677.41;;;11.13;70.24
60417;BME280;46263;44.726;10.396;2023-12-28T08:09:06;101681.00;;;11.19;70.46
60417;BME280;46263;44.726;10.396;2023-12-28T08:11:31;101689.97;;;11.28;70.18
60417;BME280;46263;44.726;10.396;2023-12-28T08:13:57;101681.13;;;11.30;70.40
60417;BME280;46263;44.726;10.396;2023-12-28T08:16:22;101684.16;;;11.32;70.56
60417;BME280;46263;44.726;10.396;2023-12-28T08:18:48;101681.00;;;11.50;71.00
60417;BME280;46263;44.726;10.396;2023-12-28T08:21:13;101677.78;;;11.57;70.34
60417;BME280;46263;44.726;10.396;2023-12-28T08:23:39;101663.19;;;11.47;70.62
60417;BME280;46263;44.726;10.396;2023-12-28T08:26:05;101665.59;;;11.60;70.74
60417;BME280;46263;44.726;10.396;2023-12-28T08:28:31;101677.78;;;11.57;71.06
60417;BME280;46263;44.726;10.396;2023-12-28T08:30:56;101681.94;;;11.67;71.42
60417;BME280;46263;44.726;10.396;2023-12-28T08:33:22;101678.41;;;11.72;71.40
60417;BME280;46263;44.726;10.396;2023-12-28T08:35:48;101674.09;;;11.71;71.68
60417;BME280;46263;44.726;10.396;2023-12-28T08:38:13;101669.75;;;11.70;72.16
60417;BME280;46263;44.726;10.396;2023-12-28T08:40:39;101667.59;;;11.90;71.59
60417;BME280;46263;44.726;10.396;2023-12-28T08:43:04;101671.47;;;12.03;71.49
60417;BME280;46263;44.726;10.396;2023-12-28T08:45:30;101672.31;;;12.15;71.33
60417;BME280;46263;44.726;10.396;2023-12-28T08:47:56;101676.19;;;12.23;70.82
60417;BME280;46263;44.726;10.396;2023-12-28T08:50:22;101679.50;;;12.27;70.69
60417;BME280;46263;44.726;10.396;2023-12-28T08:52:47;101678.47;;;12.24;71.41
60417;BME280;46263;44.726;10.396;2023-12-28T08:55:13;101681.34;;;12.35;71.59
60417;BME280;46263;44.726;10.396;2023-12-28T08:57:39;101675.75;;;12.46;71.55
60417;BME280;46263;44.726;10.396;2023-12-28T09:00:08;101676.31;;;12.61;71.19
60417;BME280;46263;44.726;10.396;2023-12-28T09:02:34;101680.44;;;12.71;71.48
60417;BME280;46263;44.726;10.396;2023-12-28T09:05:00;101683.53;;;12.84;71.33
60417;BME280;46263;44.726;10.396;2023-12-28T09:07:26;101691.22;;;12.89;70.86
60417;BME280;46263;44.726;10.396;2023-12-28T09:09:51;101687.41;;;12.97;71.96
60417;BME280;46263;44.726;10.396;2023-12-28T09:12:17;101690.25;;;13.08;70.98
60417;BME280;46263;44.726;10.396;2023-12-28T09:14:43;101690.50;;;13.10;72.20
60417;BME280;46263;44.726;10.396;2023-12-28T09:17:08;101689.97;;;12.95;74.11
60417;BME280;46263;44.726;10.396;2023-12-28T09:19:33;101687.72;;;13.10;74.71
60417;BME280;46263;44.726;10.396;2023-12-28T09:21:59;101683.88;;;13.24;74.12
60417;BME280;46263;44.726;10.396;2023-12-28T09:24:24;101693.06;;;13.30;74.21
60417;BME280;46263;44.726;10.396;2023-12-28T09:26:49;101690.25;;;13.25;74.90
60417;BME280;46263;44.726;10.396;2023-12-28T09:29:15;101691.03;;;13.20;75.23
60417;BME280;46263;44.726;10.396;2023-12-28T09:31:40;101693.06;;;13.19;75.17
60417;BME280;46263;44.726;10.396;2023-12-28T09:34:06;101688.50;;;13.27;74.56
60417;BME280;46263;44.726;10.396;2023-12-28T09:36:31;101685.69;;;13.44;74.08
60417;BME280;46263;44.726;10.396;2023-12-28T09:38:57;101695.13;;;13.52;74.57
60417;BME280;46263;44.726;10.396;2023-12-28T09:41:26;101700.75;;;13.41;75.01
60417;BME280;46263;44.726;10.396;2023-12-28T09:46:33;101685.16;;;13.51;74.58
60417;BME280;46263;44.726;10.396;2023-12-28T09:49:00;101682.88;;;13.54;75.20
60417;BME280;46263;44.726;10.396;2023-12-28T09:51:27;101685.41;;;13.52;75.73
60417;BME280;46263;44.726;10.396;2023-12-28T09:53:52;101686.69;;;13.62;75.36
60417;BME280;46263;44.726;10.396;2023-12-28T09:56:18;101684.16;;;13.64;75.44
60417;BME280;46263;44.726;10.396;2023-12-28T09:58:44;101680.03;;;13.65;75.01
60417;BME280;46263;44.726;10.396;2023-12-28T10:01:14;101688.22;;;13.74;74.87
60417;BME280;46263;44.726;10.396;2023-12-28T10:03:39;101681.56;;;13.77;75.89
60417;BME280;46263;44.726;10.396;2023-12-28T10:06:05;101682.84;;;13.76;75.57
60417;BME280;46263;44.726;10.396;2023-12-28T10:08:30;101673.94;;;13.72;75.96
60417;BME280;46263;44.726;10.396;2023-12-28T10:10:56;101680.78;;;13.88;75.92
60417;BME280;46263;44.726;10.396;2023-12-28T10:13:24;101678.50;;;13.81;76.14
60417;BME280;46263;44.726;10.396;2023-12-28T10:15:50;101673.63;;;13.92;75.86
60417;BME280;46263;44.726;10.396;2023-12-28T10:18:18;101684.38;;;13.72;76.16
60417;BME280;46263;44.726;10.396;2023-12-28T10:20:50;101682.09;;;13.70;76.80
60417;BME280;46263;44.726;10.396;2023-12-28T10:23:17;101682.34;;;13.67;77.38
60417;BME280;46263;44.726;10.396;2023-12-28T10:25:42;101676.22;;;13.74;77.12
60417;BME280;46263;44.726;10.396;2023-12-28T10:28:09;101673.88;;;13.94;77.25
60417;BME280;46263;44.726;10.396;2023-12-28T10:30:35;101679.25;;;13.98;77.02
60417;BME280;46263;44.726;10.396;2023-12-28T10:33:00;101676.13;;;14.23;75.82
60417;BME280;46263;44.726;10.396;2023-12-28T10:35:26;101675.81;;;14.43;75.58
60417;BME280;46263;44.726;10.396;2023-12-28T10:37:52;101670.50;;;14.23;76.57
60417;BME280;46263;44.726;10.396;2023-12-28T10:40:21;101667.16;;;14.30;76.92
60417;BME280;46263;44.726;10.396;2023-12-28T10:43:00;101657.13;;;14.45;76.88
60417;BME280;46263;44.726;10.396;2023-12-28T10:45:30;101664.25;;;14.57;76.10
60417;BME280;46263;44.726;10.396;2023-12-28T10:48:04;101666.78;;;14.55;75.76
60417;BME280;46263;44.726;10.396;2023-12-28T10:53:07;101646.03;;;14.64;74.35
60417;BME280;46263;44.726;10.396;2023-12-28T10:58:35;101644.53;;;14.57;74.53
60417;BME280;46263;44.726;10.396;2023-12-28T11:01:07;101639.22;;;14.48;75.36
60417;BME280;46263;44.726;10.396;2023-12-28T11:03:37;101628.25;;;14.45;75.69
60417;BME280;46263;44.726;10.396;2023-12-28T11:06:04;101628.47;;;14.47;75.85
60417;BME280;46263;44.726;10.396;2023-12-28T11:08:32;101626.88;;;14.57;75.37
60417;BME280;46263;44.726;10.396;2023-12-28T11:10:59;101619.34;;;14.76;75.16
60417;BME280;46263;44.726;10.396;2023-12-28T11:13:28;101616.53;;;14.76;74.63
60417;BME280;46263;44.726;10.396;2023-12-28T11:15:56;101609.69;;;14.66;75.19
60417;BME280;46263;44.726;10.396;2023-12-28T11:18:23;101613.50;;;14.68;75.12
60417;BME280;46263;44.726;10.396;2023-12-28T11:20:50;101614.03;;;14.67;75.08
60417;BME280;46263;44.726;10.396;2023-12-28T11:23:16;101606.06;;;14.71;75.02
60417;BME280;46263;44.726;10.396;2023-12-28T11:25:42;101604.81;;;14.66;75.34
60417;BME280;46263;44.726;10.396;2023-12-28T11:28:11;101601.19;;;14.77;75.08
60417;BME280;46263;44.726;10.396;2023-12-28T11:30:37;101594.50;;;14.80;75.10
60417;BME280;46263;44.726;10.396;2023-12-28T11:33:04;101590.69;;;14.77;74.72
60417;BME280;46263;44.726;10.396;2023-12-28T11:35:39;101591.28;;;14.65;75.49
60417;BME280;46263;44.726;10.396;2023-12-28T11:38:06;101583.84;;;14.67;75.82
60417;BME280;46263;44.726;10.396;2023-12-28T11:40:47;101577.59;;;14.80;75.05
60417;BME280;46263;44.726;10.396;2023-12-28T11:43:20;101577.78;;;14.93;74.91
60417;BME280;46263;44.726;10.396;2023-12-28T11:45:48;101577.22;;;15.00;74.74
60417;BME280;46263;44.726;10.396;2023-12-28T11:48:22;101570.50;;;15.03;74.24
60417;BME280;46263;44.726;10.396;2023-12-28T11:50:49;101571.44;;;15.16;73.59
60417;BME280;46263;44.726;10.396;2023-12-28T11:53:15;101565.50;;;15.25;73.71
60417;BME280;46263;44.726;10.396;2023-12-28T11:55:42;101565.75;;;15.21;72.62
60417;BME280;46263;44.726;10.396;2023-12-28T11:58:07;101565.19;;;15.28;72.42
60417;BME280;46263;44.726;10.396;2023-12-28T12:00:32;101561.34;;;15.31;72.64
60417;BME280;46263;44.726;10.396;2023-12-28T12:02:58;101562.53;;;15.12;73.32
60417;BME280;46263;44.726;10.396;2023-12-28T12:05:23;101558.88;;;14.88;74.48
60417;BME280;46263;44.726;10.396;2023-12-28T12:07:49;101556.22;;;15.01;74.65
60417;BME280;46263;44.726;10.396;2023-12-28T12:10:15;101546.13;;;15.11;74.35
60417;BME280;46263;44.726;10.396;2023-12-28T12:12:41;101548.09;;;15.21;74.38
60417;BME280;46263;44.726;10.396;2023-12-28T12:15:08;101546.78;;;15.27;74.15
60417;BME280;46263;44.726;10.396;2023-12-28T12:17:33;101544.84;;;15.12;74.00
60417;BME280;46263;44.726;10.396;2023-12-28T12:19:59;101545.13;;;15.08;74.10
60417;BME280;46263;44.726;10.396;2023-12-28T12:22:25;101541.69;;;15.20;74.24
60417;BME280;46263;44.726;10.396;2023-12-28T12:24:51;101533.38;;;15.10;74.25
60417;BME280;46263;44.726;10.396;2023-12-28T12:27:18;101526.16;;;15.14;74.48
60417;BME280;46263;44.726;10.396;2023-12-28T12:29:43;101527.16;;;15.16;75.02
60417;BME280;46263;44.726;10.396;2023-12-28T12:32:09;101538.50;;;15.35;74.95
60417;BME280;46263;44.726;10.396;2023-12-28T12:34:35;101532.53;;;15.44;75.32
60417;BME280;46263;44.726;10.396;2023-12-28T12:37:01;101525.00;;;15.28;75.22
60417;BME280;46263;44.726;10.396;2023-12-28T12:39:26;101522.22;;;15.22;74.55
60417;BME280;46263;44.726;10.396;2023-12-28T12:41:52;101525.19;;;15.35;74.56
60417;BME280;46263;44.726;10.396;2023-12-28T12:44:21;101523.53;;;15.45;74.10
60417;BME280;46263;44.726;10.396;2023-12-28T12:46:47;101523.88;;;15.36;73.71